createdAt,value
2024-04-13T00:00:06.412Z,100.00
2024-04-13T00:02:42.608Z,100.00
2024-04-13T00:05:12.255Z,100.00
2024-04-13T00:07:39.205Z,100.00
2024-04-13T00:10:06.702Z,100.00
2024-04-13T00:12:34.747Z,100.00
2024-04-13T00:15:01.736Z,100.00
2024-04-13T00:17:28.774Z,100.00
2024-04-13T00:19:55.681Z,100.00
2024-04-13T00:22:22.556Z,100.00
2024-04-13T00:24:49.425Z,100.00
2024-04-13T00:27:17.708Z,100.00
2024-04-13T00:29:45.223Z,100.00
2024-04-13T00:32:12.195Z,100.00
2024-04-13T00:34:39.097Z,100.00
2024-04-13T00:37:05.995Z,100.00
2024-04-13T00:39:33.345Z,100.00
2024-04-13T00:42:00.394Z,100.00
2024-04-13T00:44:27.340Z,100.00
2024-04-13T00:47:06.159Z,100.00
2024-04-13T00:49:34.807Z,100.00
2024-04-13T00:52:02.281Z,100.00
2024-04-13T00:54:30.836Z,100.00
2024-04-13T00:56:59.432Z,100.00
2024-04-13T00:59:27.406Z,100.00
2024-04-13T01:01:55.295Z,100.00
2024-04-13T01:04:22.813Z,100.00
2024-04-13T01:06:52.993Z,100.00
2024-04-13T01:09:21.497Z,100.00
2024-04-13T01:11:49.098Z,100.00
2024-04-13T01:14:18.293Z,100.00
2024-04-13T01:16:45.332Z,100.00
2024-04-13T01:19:13.222Z,100.00
2024-04-13T01:21:41.041Z,100.00
2024-04-13T01:24:08.923Z,100.00
2024-04-13T01:26:39.731Z,100.00
2024-04-13T01:29:07.614Z,100.00
2024-04-13T01:31:39.319Z,100.00
2024-04-13T01:34:07.209Z,100.00
2024-04-13T01:36:38.192Z,100.00
2024-04-13T01:39:10.600Z,100.00
2024-04-13T01:41:43.236Z,100.00
2024-04-13T01:44:11.309Z,100.00
2024-04-13T01:46:38.147Z,100.00
2024-04-13T01:49:06.171Z,100.00
2024-04-13T01:51:33.968Z,100.00
2024-04-13T01:54:01.557Z,100.00
2024-04-13T01:56:28.801Z,100.00
2024-04-13T01:58:56.163Z,100.00
2024-04-13T02:01:23.486Z,100.00
2024-04-13T02:03:51.145Z,100.00
2024-04-13T02:06:18.202Z,100.00
2024-04-13T02:08:45.189Z,100.00
2024-04-13T02:11:12.068Z,100.00
2024-04-13T02:13:39.230Z,100.00
2024-04-13T02:16:06.386Z,100.00
2024-04-13T02:18:33.479Z,100.00
2024-04-13T02:21:00.639Z,100.00
2024-04-13T02:23:27.652Z,100.00
2024-04-13T02:25:55.035Z,100.00
2024-04-13T02:28:21.969Z,100.00
2024-04-13T02:30:48.836Z,100.00
2024-04-13T02:33:16.334Z,100.00
2024-04-13T02:35:43.524Z,100.00
2024-04-13T02:38:10.412Z,100.00
2024-04-13T02:40:38.794Z,100.00
2024-04-13T02:43:05.724Z,99.75
2024-04-13T02:45:32.636Z,100.00
2024-04-13T02:47:59.567Z,100.00
2024-04-13T02:50:26.434Z,99.73
2024-04-13T02:52:58.319Z,100.00
2024-04-13T02:55:25.223Z,100.00
2024-04-13T02:57:52.072Z,100.00
2024-04-13T03:00:19.036Z,100.00
2024-04-13T03:02:45.922Z,100.00
2024-04-13T03:05:13.599Z,99.76
2024-04-13T03:07:40.529Z,100.00
2024-04-13T03:10:08.020Z,100.00
2024-04-13T03:12:34.971Z,100.00
2024-04-13T03:15:02.173Z,100.00
2024-04-13T03:17:30.772Z,100.00
2024-04-13T03:19:57.665Z,100.00
2024-04-13T03:22:24.525Z,100.00
2024-04-13T03:24:51.435Z,100.00
2024-04-13T03:27:18.842Z,100.00
2024-04-13T03:29:45.786Z,100.00
2024-04-13T03:32:12.665Z,100.00
2024-04-13T03:34:39.572Z,100.00
2024-04-13T03:37:08.915Z,100.00
2024-04-13T03:39:35.866Z,100.00
2024-04-13T03:42:02.888Z,100.00
2024-04-13T03:44:29.786Z,100.00
2024-04-13T03:46:56.640Z,100.00
2024-04-13T03:49:23.884Z,100.00
2024-04-13T03:51:52.733Z,100.00
2024-04-13T03:54:19.651Z,100.00
2024-04-13T03:56:46.538Z,100.00
2024-04-13T03:59:14.405Z,100.00
2024-04-13T04:01:41.365Z,100.00
2024-04-13T04:04:08.283Z,100.00
2024-04-13T04:06:38.787Z,100.00
2024-04-13T04:09:06.207Z,100.00
2024-04-13T04:11:33.123Z,100.00
2024-04-13T04:13:59.986Z,100.00
2024-04-13T04:16:26.907Z,100.00
2024-04-13T04:18:53.913Z,100.00
2024-04-13T04:21:21.795Z,100.00
2024-04-13T04:23:48.772Z,100.00
2024-04-13T04:26:15.676Z,100.00
2024-04-13T04:28:43.558Z,100.00
2024-04-13T04:31:13.544Z,100.00
2024-04-13T04:33:40.730Z,100.00
2024-04-13T04:36:10.267Z,100.00
2024-04-13T04:38:37.457Z,100.00
2024-04-13T04:41:04.577Z,100.00
2024-04-13T04:43:31.424Z,100.00
2024-04-13T04:45:58.240Z,100.00
2024-04-13T04:48:25.508Z,100.00
2024-04-13T04:50:59.885Z,100.00
2024-04-13T04:53:29.492Z,100.00
2024-04-13T04:55:59.423Z,100.00
2024-04-13T04:58:27.018Z,100.00
2024-04-13T05:00:54.022Z,100.00
2024-04-13T05:03:21.022Z,100.00
2024-04-13T05:05:47.926Z,100.00
2024-04-13T05:08:14.842Z,100.00
2024-04-13T05:10:42.092Z,100.00
2024-04-13T05:13:09.524Z,100.00
2024-04-13T05:15:37.229Z,100.00
2024-04-13T05:18:05.484Z,100.00
2024-04-13T05:20:32.988Z,100.00
2024-04-13T05:22:59.983Z,100.00
2024-04-13T05:25:27.292Z,100.00
2024-04-13T05:27:54.849Z,100.00
2024-04-13T05:30:21.831Z,100.00
2024-04-13T05:32:48.946Z,99.89
2024-04-13T05:35:19.611Z,99.70
2024-04-13T05:37:46.609Z,99.40
2024-04-13T05:40:14.730Z,98.50
2024-04-13T05:42:41.873Z,100.00
2024-04-13T05:45:09.063Z,100.00
2024-04-13T05:47:36.114Z,99.94
2024-04-13T05:50:04.087Z,98.84
2024-04-13T05:52:31.076Z,99.33
2024-04-13T05:54:58.043Z,99.87
2024-04-13T05:57:25.005Z,97.98
2024-04-13T05:59:51.848Z,96.41
2024-04-13T06:02:19.154Z,95.79
2024-04-13T06:05:00.214Z,96.32
2024-04-13T06:07:27.071Z,95.59
2024-04-13T06:09:53.936Z,93.98
2024-04-13T06:12:21.039Z,92.18
2024-04-13T06:14:51.621Z,91.94
2024-04-13T06:17:18.610Z,92.57
2024-04-13T06:19:46.031Z,91.38
2024-04-13T06:22:12.895Z,91.08
2024-04-13T06:24:39.929Z,90.01
2024-04-13T06:27:06.885Z,90.89
2024-04-13T06:29:33.827Z,91.48
2024-04-13T06:32:00.803Z,90.47
2024-04-13T06:34:27.876Z,89.80
2024-04-13T06:36:54.870Z,88.82
2024-04-13T06:39:21.809Z,88.12
2024-04-13T06:41:48.702Z,86.85
2024-04-13T06:44:15.742Z,85.76
2024-04-13T06:46:42.751Z,84.72
2024-04-13T06:49:09.826Z,83.47
2024-04-13T06:51:36.735Z,82.73
2024-04-13T06:54:03.753Z,81.66
2024-04-13T06:56:31.712Z,80.56
2024-04-13T06:58:58.605Z,81.93
2024-04-13T07:01:25.521Z,80.54
2024-04-13T07:03:52.525Z,80.92
2024-04-13T07:06:19.546Z,83.99
2024-04-13T07:08:46.574Z,84.04
2024-04-13T07:11:13.471Z,83.06
2024-04-13T07:13:40.407Z,78.61
2024-04-13T07:16:07.765Z,78.51
2024-04-13T07:18:34.909Z,77.38
2024-04-13T07:21:02.379Z,73.47
2024-04-13T07:23:29.269Z,68.22
2024-04-13T07:26:00.403Z,65.18
2024-04-13T07:28:28.199Z,61.18
2024-04-13T07:30:55.199Z,60.23
2024-04-13T07:33:22.452Z,56.44
2024-04-13T07:35:49.577Z,61.44
2024-04-13T07:38:16.451Z,60.76
2024-04-13T07:40:43.627Z,61.53
2024-04-13T07:43:10.528Z,57.09
2024-04-13T07:45:37.499Z,60.38
2024-04-13T07:48:04.825Z,60.62
2024-04-13T07:50:31.930Z,62.83
2024-04-13T07:52:58.888Z,62.83
2024-04-13T07:55:25.855Z,63.27
2024-04-13T07:57:53.499Z,63.79
2024-04-13T08:00:20.415Z,64.05
2024-04-13T08:02:47.417Z,62.83
2024-04-13T08:05:14.474Z,65.39
2024-04-13T08:07:41.359Z,65.17
2024-04-13T08:10:11.704Z,65.44
2024-04-13T08:12:39.201Z,65.76
2024-04-13T08:15:10.056Z,66.97
2024-04-13T08:17:37.107Z,66.13
2024-04-13T08:20:05.729Z,66.23
2024-04-13T08:22:32.723Z,67.52
2024-04-13T08:24:59.776Z,67.65
2024-04-13T08:27:27.616Z,65.10
2024-04-13T08:29:55.111Z,65.26
2024-04-13T08:32:22.105Z,64.27
2024-04-13T08:34:49.254Z,66.37
2024-04-13T08:37:16.208Z,65.43
2024-04-13T08:39:43.183Z,63.69
2024-04-13T08:42:12.263Z,65.82
2024-04-13T08:44:41.964Z,65.66
2024-04-13T08:47:11.238Z,66.97
2024-04-13T08:49:41.197Z,64.67
2024-04-13T08:52:08.903Z,64.65
2024-04-13T08:54:36.752Z,63.67
2024-04-13T08:57:09.392Z,61.25
2024-04-13T08:59:38.416Z,61.32
2024-04-13T09:02:11.058Z,60.10
2024-04-13T09:04:39.771Z,59.73
2024-04-13T09:07:06.716Z,59.05
2024-04-13T09:09:36.367Z,57.03
2024-04-13T09:12:03.732Z,57.77
2024-04-13T09:14:30.815Z,58.73
2024-04-13T09:20:59.882Z,55.44
2024-04-13T09:26:59.340Z,54.39
2024-04-13T09:30:15.819Z,54.74
2024-04-13T09:36:14.281Z,53.89
2024-04-13T09:39:09.356Z,53.64
2024-04-13T09:42:21.555Z,53.50
2024-04-13T09:45:38.281Z,55.66
2024-04-13T09:48:20.088Z,53.85
2024-04-13T09:51:13.142Z,52.81
2024-04-13T09:53:40.999Z,51.83
2024-04-13T09:56:25.721Z,51.43
2024-04-13T09:58:55.225Z,52.87
2024-04-13T10:01:22.298Z,51.87
2024-04-13T10:03:50.185Z,51.37
2024-04-13T10:06:17.793Z,50.93
2024-04-13T10:08:45.545Z,50.94
2024-04-13T10:11:15.180Z,51.54
2024-04-13T10:13:45.755Z,50.54
2024-04-13T10:16:13.904Z,51.23
2024-04-13T10:18:40.951Z,51.44
2024-04-13T10:21:07.973Z,52.57
2024-04-13T10:23:49.182Z,53.36
2024-04-13T10:26:44.549Z,51.11
2024-04-13T10:29:26.603Z,50.94
2024-04-13T10:31:54.349Z,52.01
2024-04-13T10:34:27.798Z,49.57
2024-04-13T10:36:59.476Z,51.39
2024-04-13T10:39:26.601Z,50.50
2024-04-13T10:41:54.793Z,49.97
2024-04-13T10:44:26.709Z,51.71
2024-04-13T10:46:53.718Z,52.49
2024-04-13T10:49:21.985Z,51.05
2024-04-13T10:51:49.105Z,50.79
2024-04-13T10:54:16.343Z,49.74
2024-04-13T10:56:45.738Z,48.47
2024-04-13T10:59:19.708Z,49.51
2024-04-13T11:03:11.975Z,49.83
2024-04-13T11:11:31.002Z,47.08
2024-04-13T11:17:15.827Z,46.86
2024-04-13T11:19:43.821Z,46.52
2024-04-13T11:22:17.843Z,48.41
2024-04-13T11:25:05.588Z,49.11
2024-04-13T11:27:35.718Z,48.09
2024-04-13T11:30:03.275Z,49.50
2024-04-13T11:32:31.942Z,46.97
2024-04-13T11:34:58.866Z,46.88
2024-04-13T11:37:26.166Z,46.79
2024-04-13T11:39:53.472Z,46.78
2024-04-13T11:42:26.916Z,49.16
2024-04-13T11:45:00.972Z,47.74
2024-04-13T11:47:28.147Z,47.29
2024-04-13T11:49:55.391Z,47.45
2024-04-13T11:52:22.688Z,48.53
2024-04-13T11:54:49.845Z,46.78
2024-04-13T11:57:17.940Z,44.50
2024-04-13T11:59:46.914Z,46.25
2024-04-13T12:02:13.990Z,45.59
2024-04-13T12:04:44.193Z,45.97
2024-04-13T12:07:13.808Z,43.40
2024-04-13T12:09:41.452Z,43.24
2024-04-13T12:12:09.123Z,45.09
2024-04-13T12:14:44.044Z,46.50
2024-04-13T12:17:18.074Z,44.39
2024-04-13T12:19:45.831Z,44.88
2024-04-13T12:22:12.767Z,45.85
2024-04-13T12:24:39.699Z,45.85
2024-04-13T12:27:06.980Z,44.48
2024-04-13T12:29:33.900Z,45.28
2024-04-13T12:32:01.432Z,45.94
2024-04-13T12:34:28.559Z,45.04
2024-04-13T12:36:55.686Z,45.49
2024-04-13T12:39:22.638Z,43.95
2024-04-13T12:41:49.578Z,46.87
2024-04-13T12:44:16.484Z,45.12
2024-04-13T12:46:44.546Z,44.59
2024-04-13T12:49:11.631Z,45.17
2024-04-13T12:51:38.666Z,45.77
2024-04-13T12:54:05.652Z,46.17
2024-04-13T12:56:32.805Z,45.34
2024-04-13T12:58:59.781Z,45.23
2024-04-13T13:01:28.095Z,45.27
2024-04-13T13:03:55.190Z,45.19
2024-04-13T13:06:22.576Z,44.98
2024-04-13T13:08:49.535Z,44.34
2024-04-13T13:11:16.566Z,44.95
2024-04-13T13:13:43.436Z,45.39
2024-04-13T13:16:10.369Z,46.82
2024-04-13T13:18:37.571Z,46.20
2024-04-13T13:21:05.636Z,46.57
2024-04-13T13:23:33.680Z,47.49
2024-04-13T13:26:00.769Z,47.26
2024-04-13T13:28:28.054Z,47.88
2024-04-13T13:30:55.122Z,46.50
2024-04-13T13:33:22.218Z,48.56
2024-04-13T13:36:36.274Z,47.87
2024-04-13T13:45:24.950Z,47.49
2024-04-13T13:48:18.070Z,46.52
2024-04-13T13:53:33.445Z,47.96
2024-04-13T13:56:10.857Z,45.48
2024-04-13T13:59:10.849Z,44.64
2024-04-13T14:06:11.749Z,46.29
2024-04-13T14:16:36.434Z,45.94
2024-04-13T14:19:05.376Z,44.46
2024-04-13T14:21:44.074Z,43.12
2024-04-13T14:24:21.743Z,43.53
2024-04-13T14:26:55.008Z,44.69
2024-04-13T14:29:43.732Z,44.66
2024-04-13T14:33:02.480Z,44.60
2024-04-13T14:35:58.493Z,44.18
2024-04-13T14:38:29.544Z,45.51
2024-04-13T14:46:46.138Z,45.32
2024-04-13T14:49:13.068Z,47.77
2024-04-13T14:51:40.133Z,43.89
2024-04-13T14:54:07.663Z,43.63
2024-04-13T14:56:37.334Z,43.79
2024-04-13T14:59:04.320Z,45.51
2024-04-13T15:01:31.510Z,45.98
2024-04-13T15:03:58.753Z,45.22
2024-04-13T15:06:26.213Z,43.78
2024-04-13T15:08:53.203Z,46.33
2024-04-13T15:11:27.424Z,45.83
2024-04-13T15:17:23.490Z,45.23
2024-04-13T15:20:21.111Z,46.04
2024-04-13T15:23:05.116Z,45.78
2024-04-13T15:25:46.654Z,45.67
2024-04-13T15:28:25.350Z,46.63
2024-04-13T15:30:56.884Z,44.47
2024-04-13T15:33:24.949Z,45.83
2024-04-13T15:35:54.547Z,45.42
2024-04-13T15:38:40.816Z,44.91
2024-04-13T15:41:58.459Z,45.18
2024-04-13T15:45:27.700Z,47.38
2024-04-13T15:48:08.662Z,46.18
2024-04-13T15:50:39.224Z,45.20
2024-04-13T15:53:06.253Z,45.04
2024-04-13T15:55:33.185Z,45.79
2024-04-13T15:58:00.339Z,46.94
2024-04-13T16:00:27.647Z,47.85
2024-04-13T16:02:57.040Z,48.47
2024-04-13T16:05:23.980Z,46.23
2024-04-13T16:07:50.956Z,45.96
2024-04-13T16:10:18.315Z,46.87
2024-04-13T16:12:47.080Z,47.42
2024-04-13T16:15:14.115Z,51.78
2024-04-13T16:17:41.013Z,47.39
2024-04-13T16:20:08.581Z,48.86
2024-04-13T16:22:35.520Z,45.62
2024-04-13T16:25:02.564Z,45.27
2024-04-13T16:27:29.553Z,46.46
2024-04-13T16:29:56.505Z,47.30
2024-04-13T16:32:23.668Z,48.67
2024-04-13T16:34:50.576Z,49.96
2024-04-13T16:37:17.483Z,51.73
2024-04-13T16:39:44.354Z,49.85
2024-04-13T16:42:11.299Z,52.38
2024-04-13T16:44:38.210Z,53.23
2024-04-13T16:47:05.330Z,54.03
2024-04-13T16:49:32.360Z,55.73
2024-04-13T16:51:59.381Z,56.63
2024-04-13T16:54:26.398Z,57.59
2024-04-13T16:56:53.590Z,57.76
2024-04-13T16:59:21.636Z,58.01
2024-04-13T17:01:48.609Z,58.67
2024-04-13T17:04:15.674Z,58.98
2024-04-13T17:06:43.543Z,57.96
2024-04-13T17:09:11.149Z,59.24
2024-04-13T17:11:38.105Z,60.34
2024-04-13T17:14:04.975Z,60.02
2024-04-13T17:16:32.468Z,60.41
2024-04-13T17:18:59.588Z,61.80
2024-04-13T17:21:26.507Z,62.83
2024-04-13T17:23:53.461Z,63.79
2024-04-13T17:26:20.416Z,64.08
2024-04-13T17:28:47.436Z,64.73
2024-04-13T17:31:14.627Z,65.26
2024-04-13T17:33:41.681Z,65.83
2024-04-13T17:36:09.996Z,66.57
2024-04-13T17:38:38.244Z,67.29
2024-04-13T17:41:05.274Z,66.49
2024-04-13T17:43:32.249Z,67.91
2024-04-13T17:46:01.702Z,69.28
2024-04-13T17:48:28.924Z,69.01
2024-04-13T17:51:02.947Z,70.02
2024-04-13T17:54:06.790Z,71.59
2024-04-13T17:57:06.655Z,70.23
2024-04-13T17:59:40.818Z,71.04
2024-04-13T18:02:08.039Z,70.85
2024-04-13T18:04:39.503Z,72.40
2024-04-13T18:14:32.626Z,75.07
2024-04-13T18:16:59.807Z,76.38
2024-04-13T18:19:26.835Z,75.43
2024-04-13T18:21:54.057Z,77.25
2024-04-13T18:24:21.124Z,77.22
2024-04-13T18:26:48.030Z,75.41
2024-04-13T18:29:15.088Z,76.70
2024-04-13T18:31:44.293Z,77.11
2024-04-13T18:34:12.164Z,75.79
2024-04-13T18:36:39.446Z,75.27
2024-04-13T18:39:06.745Z,76.16
2024-04-13T18:41:37.741Z,75.22
2024-04-13T18:44:08.312Z,75.26
2024-04-13T18:46:36.864Z,76.77
2024-04-13T18:49:03.836Z,76.74
2024-04-13T18:51:30.756Z,77.08
2024-04-13T18:53:57.698Z,78.22
2024-04-13T18:56:24.673Z,76.99
2024-04-13T18:58:51.669Z,77.64
2024-04-13T19:01:18.948Z,77.67
2024-04-13T19:03:46.073Z,77.59
2024-04-13T19:06:13.129Z,77.15
2024-04-13T19:08:40.092Z,77.77
2024-04-13T19:11:07.121Z,77.74
2024-04-13T19:13:34.144Z,78.63
2024-04-13T19:16:09.232Z,79.28
2024-04-13T19:18:38.427Z,81.11
2024-04-13T19:21:06.370Z,81.12
2024-04-13T19:23:33.495Z,81.77
2024-04-13T19:26:03.374Z,81.12
2024-04-13T19:28:30.337Z,82.18
2024-04-13T19:30:57.385Z,81.96
2024-04-13T19:33:24.919Z,82.07
2024-04-13T19:35:52.717Z,81.98
2024-04-13T19:38:19.902Z,81.62
2024-04-13T19:40:52.217Z,82.40
2024-04-13T19:43:20.203Z,83.05
2024-04-13T19:45:48.407Z,83.19
2024-04-13T19:48:15.676Z,81.84
2024-04-13T19:50:42.694Z,81.21
2024-04-13T19:53:11.160Z,81.35
2024-04-13T19:55:38.231Z,81.47
2024-04-13T19:58:05.524Z,81.61
2024-04-13T20:00:35.706Z,82.31
2024-04-13T20:03:02.700Z,82.77
2024-04-13T20:05:36.780Z,82.54
2024-04-13T20:08:04.129Z,83.34
2024-04-13T20:10:31.196Z,82.48
2024-04-13T20:12:58.722Z,82.08
2024-04-13T20:15:44.340Z,82.27
2024-04-13T20:18:30.203Z,82.27
2024-04-13T20:20:57.248Z,83.04
2024-04-13T20:23:24.208Z,82.19
2024-04-13T20:25:51.153Z,82.95
2024-04-13T20:28:18.169Z,83.03
2024-04-13T20:30:45.426Z,82.35
2024-04-13T20:33:12.452Z,81.52
2024-04-13T20:35:39.630Z,81.30
2024-04-13T20:38:07.637Z,80.56
2024-04-13T20:40:34.570Z,81.46
2024-04-13T20:43:01.694Z,80.34
2024-04-13T20:45:29.242Z,80.50
2024-04-13T20:47:56.241Z,81.16
2024-04-13T20:50:23.246Z,81.24
2024-04-13T20:52:57.024Z,80.67
2024-04-13T20:55:28.450Z,80.98
2024-04-13T20:57:55.528Z,81.77
2024-04-13T21:00:23.078Z,81.30
2024-04-13T21:02:50.051Z,81.26
2024-04-13T21:05:17.750Z,81.00
2024-04-13T21:07:44.977Z,81.01
2024-04-13T21:10:12.484Z,81.17
2024-04-13T21:12:39.526Z,81.16
2024-04-13T21:15:06.812Z,80.96
2024-04-13T21:17:33.768Z,81.35
2024-04-13T21:20:00.687Z,81.88
2024-04-13T21:22:27.704Z,81.57
2024-04-13T21:24:58.535Z,82.36
2024-04-13T21:27:26.124Z,82.09
2024-04-13T21:29:53.239Z,81.98
2024-04-13T21:32:20.786Z,82.28
2024-04-13T21:34:49.950Z,82.27
2024-04-13T21:37:17.763Z,81.37
2024-04-13T21:39:44.904Z,81.54
2024-04-13T21:42:11.943Z,81.98
2024-04-13T21:44:38.877Z,82.93
2024-04-13T21:47:06.174Z,82.48
2024-04-13T21:49:33.046Z,82.30
2024-04-13T21:51:59.946Z,83.12
2024-04-13T21:54:26.931Z,83.36
2024-04-13T21:56:53.838Z,82.80
2024-04-13T21:59:20.823Z,82.74
2024-04-13T22:01:47.674Z,82.95
2024-04-13T22:04:14.702Z,82.60
2024-04-13T22:06:42.126Z,82.08
2024-04-13T22:09:09.244Z,82.25
2024-04-13T22:11:36.458Z,82.30
2024-04-13T22:14:03.339Z,83.03
2024-04-13T22:16:30.292Z,82.62
2024-04-13T22:19:02.402Z,82.90
2024-04-13T22:21:30.367Z,82.91
2024-04-13T22:23:58.683Z,83.21
2024-04-13T22:26:25.859Z,82.60
2024-04-13T22:28:53.175Z,82.95
2024-04-13T22:31:20.119Z,82.76
2024-04-13T22:33:47.312Z,82.83
2024-04-13T22:36:14.493Z,82.84
2024-04-13T22:38:41.452Z,83.29
2024-04-13T22:41:08.354Z,83.66
2024-04-13T22:43:35.905Z,83.66
2024-04-13T22:46:03.679Z,84.03
2024-04-13T22:48:31.027Z,84.14
2024-04-13T22:51:01.601Z,85.52
2024-04-13T22:53:28.978Z,85.54
2024-04-13T22:55:57.435Z,86.39
2024-04-13T22:58:24.631Z,86.42
2024-04-13T23:00:58.023Z,86.25
2024-04-13T23:03:25.010Z,88.04
2024-04-13T23:05:59.382Z,88.56
2024-04-13T23:08:27.083Z,90.42
2024-04-13T23:10:55.287Z,90.52
2024-04-13T23:13:22.396Z,91.48
2024-04-13T23:15:50.592Z,92.17
2024-04-13T23:18:19.624Z,92.93
2024-04-13T23:20:47.661Z,93.76
2024-04-13T23:23:15.261Z,93.86
2024-04-13T23:25:42.226Z,94.00
2024-04-13T23:28:09.110Z,93.55
2024-04-13T23:30:36.073Z,94.63
2024-04-13T23:33:03.087Z,95.41
2024-04-13T23:35:30.393Z,95.48
2024-04-13T23:37:57.393Z,96.20
2024-04-13T23:40:24.347Z,96.10
2024-04-13T23:42:51.951Z,96.70
2024-04-13T23:45:19.648Z,96.51
2024-04-13T23:47:46.653Z,96.66
2024-04-13T23:50:15.312Z,95.72
2024-04-13T23:52:42.232Z,95.49
2024-04-13T23:55:09.139Z,95.33
2024-04-13T23:57:37.762Z,95.32
